Regina Baltica — P3FV4 — position and weather

sailwx.info

Track history (hours):
 
Tides and Currents Weather Stations Pressure Air Temp Water Temp Dewpoint Dewpoint Depression Visibility Wind Speed Wind Dir Waves Ship Positions

Regina Baltica

Last reported at 2017-Oct-13 03:15 UTC. Time now 2017-Nov-22 16:48 UTC.
Position N 38°49' E 000°23'.
Warning: this ship's position is 40 days out of date.

Length 145 m; draft 5.4 m.

Type: Ship. MMSI: 210976000.

Date/timePositionNaut miles runAvg speedWind from/ knotsBaromVisibWave heightAir tempDewpointWater temp
2017-Oct-13 03:15N 38°49' E 000°23'416.8
2017-Oct-13 03:00N 38°45' E 000°26'714.3
2017-Oct-13 02:30N 38°38' E 000°25'1016.4
2017-Oct-13 01:55N 38°29' E 000°22'716.7
2017-Oct-13 01:30N 38°22' E 000°22'816.6
2017-Oct-13 01:00N 38°14' E 000°20'1018.3
2017-Oct-13 00:29N 38°04' E 000°19'918.9
2017-Oct-13 00:00N 37°55' E 000°18'1019.0
2017-Oct-12 23:30N 37°46' E 000°17'919.2
2017-Oct-12 23:00N 37°36' E 000°16'919.1
2017-Oct-12 22:31N 37°27' E 000°14'1219.0
2017-Oct-12 21:52N 37°15' E 000°13'718.9
2017-Oct-12 21:31N 37°08' E 000°12'1018.9
2017-Oct-12 21:00N 36°58' E 000°11'918.5
2017-Oct-12 20:30N 36°49' E 000°10'918.2
2017-Oct-12 20:00N 36°40' E 000°09'918.3
2017-Oct-12 19:30N 36°31' E 000°07'918.4
2017-Oct-12 19:01N 36°22' E 000°06'1018.3
2017-Oct-12 18:29N 36°12' E 000°04'918.1
2017-Oct-12 18:00N 36°04' E 000°04'815.8
2017-Oct-12 17:30N 35°56' E 000°04'1 1.4
2017-Oct-12 17:00N 35°56' E 000°05'0 0.0
2017-Oct-12 16:26N 35°56' E 000°05'0 0.0
2017-Oct-12 15:58N 35°56' E 000°05'0 0.0
2017-Oct-12 15:21N 35°56' E 000°05'0 0.0
2017-Oct-12 14:47N 35°56' E 000°05'29 2.9
2017-Oct-12 04:51N 36°25' E 000°07'617.6
2017-Oct-12 04:30N 36°31' E 000°07'1717.8
2017-Oct-12 03:33N 36°48' E 000°09'118.0
2017-Oct-12 03:30N 36°49' E 000°09'917.8
2017-Oct-12 03:00N 36°58' E 000°09'917.3
2017-Oct-12 02:30N 37°06' E 000°09'714.9
2017-Oct-12 02:00N 37°14' E 000°10'815.6
2017-Oct-12 01:31N 37°22' E 000°11'815.7
2017-Oct-12 01:01N 37°29' E 000°11'816.0
2017-Oct-12 00:30N 37°37' E 000°13'815.8
2017-Oct-12 00:00N 37°45' E 000°14'815.7
2017-Oct-11 23:30N 37°53' E 000°15'815.8
2017-Oct-11 23:00N 38°01' E 000°17'816.2
2017-Oct-11 22:30N 38°09' E 000°18'1516.0
2017-Oct-11 21:33N 38°24' E 000°17'115.6
2017-Oct-11 21:30N 38°25' E 000°17'815.4
2017-Oct-11 21:00N 38°32' E 000°20'815.1
2017-Oct-11 20:30N 38°40' E 000°21'61 2.9
2017-Oct-10 23:29N 37°39' E 000°17'919.3
2017-Oct-10 23:00N 37°30' E 000°16'919.3
2017-Oct-10 22:31N 37°20' E 000°15'1119.2
2017-Oct-10 21:58N 37°10' E 000°13'919.1
2017-Oct-10 21:31N 37°01' E 000°11'1019.0
2017-Oct-10 21:00N 36°52' E 000°10'918.6
2017-Oct-10 20:30N 36°43' E 000°09'1018.2
2017-Oct-10 19:59N 36°33' E 000°08'1018.4
2017-Oct-10 19:26N 36°23' E 000°07'28 1.7
2017-Oct-10 03:10N 36°51' E 000°09'716.6
2017-Oct-10 02:43N 36°59' E 000°09'416.3
2017-Oct-10 02:27N 37°03' E 000°10'1116.0
2017-Oct-10 01:44N 37°15' E 000°11'5716.2
2017-Oct-09 22:13N 38°11' E 000°17'4 0.2
2017-Oct-09 01:15N 38°14' E 000°20'518.7
2017-Oct-09 01:00N 38°09' E 000°20'3218.7
2017-Oct-08 23:17N 37°37' E 000°16'518.7
2017-Oct-08 23:00N 37°32' E 000°16'1218.7
2017-Oct-08 22:21N 37°20' E 000°14'1518.8
2017-Oct-08 21:32N 37°05' E 000°12'118.8
2017-Oct-08 21:30N 37°04' E 000°12'1018.8
2017-Oct-08 20:59N 36°54' E 000°11'918.8
2017-Oct-08 20:30N 36°46' E 000°10'3618.6
2017-Oct-08 18:34N 36°10' E 000°06'118.3
2017-Oct-08 18:29N 36°08' E 000°06'918.1
2017-Oct-08 18:00N 35°59' E 000°04'3 5.6
2017-Oct-08 17:23N 35°56' E 000°05'0 0.0
2017-Oct-08 16:57N 35°56' E 000°05'0 0.0
2017-Oct-08 16:26N 35°56' E 000°05'0 0.0
2017-Oct-08 15:58N 35°56' E 000°05'0 0.0
2017-Oct-08 15:27N 35°56' E 000°05'0 0.0
2017-Oct-08 14:59N 35°56' E 000°05'0 0.0
2017-Oct-08 14:30N 35°56' E 000°05'8 1.0
2017-Oct-08 06:21N 36°02' W 000°03'1714.3
2017-Oct-08 05:08N 36°18' E 000°06'2715.4
2017-Oct-08 03:23N 36°45' E 000°08'616.1
2017-Oct-08 02:59N 36°51' E 000°09'816.0
2017-Oct-08 02:30N 36°59' E 000°09'816.0
2017-Oct-08 02:00N 37°07' E 000°10'815.4
2017-Oct-08 01:30N 37°15' E 000°11'13 0.5
2017-Oct-06 23:04N 37°27' E 000°15'118.5
2017-Oct-06 23:00N 37°26' E 000°15'918.4
2017-Oct-06 22:30N 37°17' E 000°14'2018.5
2017-Oct-06 21:25N 36°57' E 000°12'818.6
2017-Oct-06 21:00N 36°50' E 000°10'1418.5
2017-Oct-06 20:16N 36°36' E 000°09'518.3
2017-Oct-06 20:00N 36°31' E 000°08'14 1.0
2017-Oct-06 05:26N 36°17' E 000°06'817.2
2017-Oct-06 04:58N 36°25' E 000°06'2117.3
2017-Oct-06 03:46N 36°46' E 000°08'717.1
2017-Oct-06 03:22N 36°53' E 000°09'617.1
2017-Oct-06 03:00N 36°59' E 000°10'915.3
2017-Oct-06 02:24N 37°08' E 000°11'615.5
2017-Oct-06 02:00N 37°14' E 000°11'715.2
2017-Oct-06 01:31N 37°22' E 000°11'815.1
2017-Oct-06 00:58N 37°30' E 000°12'715.1
2017-Oct-06 00:31N 37°37' E 000°13'1415.1
2017-Oct-05 23:36N 37°51' E 000°15'1214.8
2017-Oct-05 22:45N 38°03' E 000°16'414.6
2017-Oct-05 22:30N 38°07' E 000°16'1814.8
2017-Oct-05 21:18N 38°24' E 000°19'415.1
2017-Oct-05 21:00N 38°29' E 000°20'815.0
2017-Oct-05 20:30N 38°36' E 000°21'914.2
2017-Oct-05 19:52N 38°45' E 000°24'513.7
2017-Oct-05 19:30N 38°50' E 000°22'  
Track history (hours):
 
Tides and Currents Weather Stations Pressure Air Temp Water Temp Dewpoint Dewpoint Depression Visibility Wind Speed Wind Dir Waves Ship Positions

Regina Baltica

Last reported at 2017-Oct-13 03:15 UTC. Time now 2017-Nov-22 16:48 UTC.
Position N 38°49' E 000°23'.
Warning: this ship's position is 40 days out of date.

Length 145 m; draft 5.4 m.

Type: Ship. MMSI: 210976000.

Date/timePositionNaut miles runAvg speedWind from/ knotsBaromVisibWave heightAir tempDewpointWater temp
2017-Oct-13 03:15N 38°49' E 000°23'416.8
2017-Oct-13 03:00N 38°45' E 000°26'714.3
2017-Oct-13 02:30N 38°38' E 000°25'1016.4
2017-Oct-13 01:55N 38°29' E 000°22'716.7
2017-Oct-13 01:30N 38°22' E 000°22'816.6
2017-Oct-13 01:00N 38°14' E 000°20'1018.3
2017-Oct-13 00:29N 38°04' E 000°19'918.9
2017-Oct-13 00:00N 37°55' E 000°18'1019.0
2017-Oct-12 23:30N 37°46' E 000°17'919.2
2017-Oct-12 23:00N 37°36' E 000°16'919.1
2017-Oct-12 22:31N 37°27' E 000°14'1219.0
2017-Oct-12 21:52N 37°15' E 000°13'718.9
2017-Oct-12 21:31N 37°08' E 000°12'1018.9
2017-Oct-12 21:00N 36°58' E 000°11'918.5
2017-Oct-12 20:30N 36°49' E 000°10'918.2
2017-Oct-12 20:00N 36°40' E 000°09'918.3
2017-Oct-12 19:30N 36°31' E 000°07'918.4
2017-Oct-12 19:01N 36°22' E 000°06'1018.3
2017-Oct-12 18:29N 36°12' E 000°04'918.1
2017-Oct-12 18:00N 36°04' E 000°04'815.8
2017-Oct-12 17:30N 35°56' E 000°04'1 1.4
2017-Oct-12 17:00N 35°56' E 000°05'0 0.0
2017-Oct-12 16:26N 35°56' E 000°05'0 0.0
2017-Oct-12 15:58N 35°56' E 000°05'0 0.0
2017-Oct-12 15:21N 35°56' E 000°05'0 0.0
2017-Oct-12 14:47N 35°56' E 000°05'29 2.9
2017-Oct-12 04:51N 36°25' E 000°07'617.6
2017-Oct-12 04:30N 36°31' E 000°07'1717.8
2017-Oct-12 03:33N 36°48' E 000°09'118.0
2017-Oct-12 03:30N 36°49' E 000°09'917.8
2017-Oct-12 03:00N 36°58' E 000°09'917.3
2017-Oct-12 02:30N 37°06' E 000°09'714.9
2017-Oct-12 02:00N 37°14' E 000°10'815.6
2017-Oct-12 01:31N 37°22' E 000°11'815.7
2017-Oct-12 01:01N 37°29' E 000°11'816.0
2017-Oct-12 00:30N 37°37' E 000°13'815.8
2017-Oct-12 00:00N 37°45' E 000°14'815.7
2017-Oct-11 23:30N 37°53' E 000°15'815.8
2017-Oct-11 23:00N 38°01' E 000°17'816.2
2017-Oct-11 22:30N 38°09' E 000°18'1516.0
2017-Oct-11 21:33N 38°24' E 000°17'115.6
2017-Oct-11 21:30N 38°25' E 000°17'815.4
2017-Oct-11 21:00N 38°32' E 000°20'815.1
2017-Oct-11 20:30N 38°40' E 000°21'61 2.9
2017-Oct-10 23:29N 37°39' E 000°17'919.3
2017-Oct-10 23:00N 37°30' E 000°16'919.3
2017-Oct-10 22:31N 37°20' E 000°15'1119.2
2017-Oct-10 21:58N 37°10' E 000°13'919.1
2017-Oct-10 21:31N 37°01' E 000°11'1019.0
2017-Oct-10 21:00N 36°52' E 000°10'918.6
2017-Oct-10 20:30N 36°43' E 000°09'1018.2
2017-Oct-10 19:59N 36°33' E 000°08'1018.4
2017-Oct-10 19:26N 36°23' E 000°07'28 1.7
2017-Oct-10 03:10N 36°51' E 000°09'716.6
2017-Oct-10 02:43N 36°59' E 000°09'416.3
2017-Oct-10 02:27N 37°03' E 000°10'1116.0
2017-Oct-10 01:44N 37°15' E 000°11'5716.2
2017-Oct-09 22:13N 38°11' E 000°17'4 0.2
2017-Oct-09 01:15N 38°14' E 000°20'518.7
2017-Oct-09 01:00N 38°09' E 000°20'3218.7
2017-Oct-08 23:17N 37°37' E 000°16'518.7
2017-Oct-08 23:00N 37°32' E 000°16'1218.7
2017-Oct-08 22:21N 37°20' E 000°14'1518.8
2017-Oct-08 21:32N 37°05' E 000°12'118.8
2017-Oct-08 21:30N 37°04' E 000°12'1018.8
2017-Oct-08 20:59N 36°54' E 000°11'918.8
2017-Oct-08 20:30N 36°46' E 000°10'3618.6
2017-Oct-08 18:34N 36°10' E 000°06'118.3
2017-Oct-08 18:29N 36°08' E 000°06'918.1
2017-Oct-08 18:00N 35°59' E 000°04'3 5.6
2017-Oct-08 17:23N 35°56' E 000°05'0 0.0
2017-Oct-08 16:57N 35°56' E 000°05'0 0.0
2017-Oct-08 16:26N 35°56' E 000°05'0 0.0
2017-Oct-08 15:58N 35°56' E 000°05'0 0.0
2017-Oct-08 15:27N 35°56' E 000°05'0 0.0
2017-Oct-08 14:59N 35°56' E 000°05'0 0.0
2017-Oct-08 14:30N 35°56' E 000°05'8 1.0
2017-Oct-08 06:21N 36°02' W 000°03'1714.3
2017-Oct-08 05:08N 36°18' E 000°06'2715.4
2017-Oct-08 03:23N 36°45' E 000°08'616.1
2017-Oct-08 02:59N 36°51' E 000°09'816.0
2017-Oct-08 02:30N 36°59' E 000°09'816.0
2017-Oct-08 02:00N 37°07' E 000°10'815.4
2017-Oct-08 01:30N 37°15' E 000°11'13 0.5
2017-Oct-06 23:04N 37°27' E 000°15'118.5
2017-Oct-06 23:00N 37°26' E 000°15'918.4
2017-Oct-06 22:30N 37°17' E 000°14'2018.5
2017-Oct-06 21:25N 36°57' E 000°12'818.6
2017-Oct-06 21:00N 36°50' E 000°10'1418.5
2017-Oct-06 20:16N 36°36' E 000°09'518.3
2017-Oct-06 20:00N 36°31' E 000°08'14 1.0
2017-Oct-06 05:26N 36°17' E 000°06'817.2
2017-Oct-06 04:58N 36°25' E 000°06'2117.3
2017-Oct-06 03:46N 36°46' E 000°08'717.1
2017-Oct-06 03:22N 36°53' E 000°09'617.1
2017-Oct-06 03:00N 36°59' E 000°10'915.3
2017-Oct-06 02:24N 37°08' E 000°11'615.5
2017-Oct-06 02:00N 37°14' E 000°11'715.2
2017-Oct-06 01:31N 37°22' E 000°11'815.1
2017-Oct-06 00:58N 37°30' E 000°12'715.1
2017-Oct-06 00:31N 37°37' E 000°13'1415.1
2017-Oct-05 23:36N 37°51' E 000°15'1214.8
2017-Oct-05 22:45N 38°03' E 000°16'414.6
2017-Oct-05 22:30N 38°07' E 000°16'1814.8
2017-Oct-05 21:18N 38°24' E 000°19'415.1
2017-Oct-05 21:00N 38°29' E 000°20'815.0
2017-Oct-05 20:30N 38°36' E 000°21'914.2
2017-Oct-05 19:52N 38°45' E 000°24'513.7
2017-Oct-05 19:30N 38°50' E 000°22'  

Dump ship's entire track history